createdAt,value
2018-08-02T00:01:01.228Z,23.80
2018-08-02T00:06:05.468Z,23.80
2018-08-02T00:11:09.478Z,24.00
2018-08-02T00:16:13.241Z,24.10
2018-08-02T00:21:17.464Z,24.20
2018-08-02T00:26:21.051Z,24.30
2018-08-02T00:31:24.962Z,24.30
2018-08-02T00:36:28.591Z,24.30
2018-08-02T00:41:32.230Z,24.30
2018-08-02T00:46:36.635Z,24.30
2018-08-02T00:51:40.494Z,24.20
2018-08-02T00:56:44.229Z,24.10
2018-08-02T01:01:47.815Z,24.10
2018-08-02T01:06:51.622Z,24.10
2018-08-02T01:11:55.150Z,24.00
2018-08-02T01:16:58.758Z,23.90
2018-08-02T01:22:03.318Z,23.90
2018-08-02T01:27:07.209Z,24.00
2018-08-02T01:32:10.730Z,24.00
2018-08-02T01:37:14.310Z,24.00
2018-08-02T01:42:19.083Z,23.90
2018-08-02T01:47:25.538Z,23.90
2018-08-02T01:52:29.177Z,23.80
2018-08-02T01:57:32.752Z,23.80
2018-08-02T02:02:43.992Z,23.70
2018-08-02T02:07:47.871Z,23.70
2018-08-02T02:12:51.470Z,23.70
2018-08-02T02:17:55.443Z,23.70
2018-08-02T02:22:59.044Z,23.80
2018-08-02T02:28:07.819Z,23.90
2018-08-02T02:33:11.875Z,23.80
2018-08-02T02:38:16.425Z,23.80
2018-08-02T02:43:20.360Z,23.70
2018-08-02T02:48:23.966Z,23.70
2018-08-02T02:53:27.519Z,23.70
2018-08-02T02:58:31.448Z,23.60
2018-08-02T03:03:35.495Z,23.50
2018-08-02T03:08:40.497Z,23.50
2018-08-02T03:13:44.105Z,23.60
2018-08-02T03:18:47.698Z,23.60
2018-08-02T03:28:54.466Z,23.60
2018-08-02T03:34:04.040Z,23.50
2018-08-02T03:39:09.421Z,23.50
2018-08-02T03:44:13.296Z,23.30
2018-08-02T03:49:16.867Z,23.30
2018-08-02T03:54:20.492Z,23.20
2018-08-02T03:59:26.544Z,23.20
2018-08-02T04:04:30.519Z,23.30
2018-08-02T04:09:34.107Z,23.20
2018-08-02T04:14:39.528Z,23.10
2018-08-02T04:19:43.391Z,23.00
2018-08-02T04:24:46.977Z,23.00
2018-08-02T04:29:50.864Z,23.10
2018-08-02T04:34:55.576Z,23.10
2018-08-02T04:39:59.116Z,23.10
2018-08-02T04:45:02.799Z,23.10
2018-08-02T04:50:07.051Z,23.10
2018-08-02T05:00:15.307Z,22.90
2018-08-02T05:05:18.850Z,23.00
2018-08-02T05:10:22.418Z,23.10
2018-08-02T05:15:26.022Z,23.30
2018-08-02T05:20:29.571Z,23.40
2018-08-02T05:25:33.107Z,23.50
2018-08-02T05:30:36.683Z,23.50
2018-08-02T05:35:40.795Z,23.60
2018-08-02T05:40:44.236Z,23.60
2018-08-02T05:45:47.820Z,23.70
2018-08-02T05:50:51.373Z,23.70
2018-08-02T05:55:54.916Z,23.80
2018-08-02T06:00:58.822Z,23.80
2018-08-02T06:06:02.412Z,23.80
2018-08-02T06:11:06.231Z,23.90
2018-08-02T06:21:13.380Z,24.30
2018-08-02T06:26:17.164Z,24.40
2018-08-02T06:31:21.060Z,24.50
2018-08-02T06:36:24.984Z,24.60
2018-08-02T06:41:28.593Z,24.70
2018-08-02T06:46:32.284Z,24.80
2018-08-02T06:51:36.097Z,24.90
2018-08-02T06:56:39.662Z,25.10
2018-08-02T07:01:43.205Z,25.20
2018-08-02T07:06:46.768Z,25.30
2018-08-02T07:11:50.423Z,25.40
2018-08-02T07:21:57.224Z,25.50
2018-08-02T07:27:00.762Z,25.60
2018-08-02T07:32:04.810Z,25.80
2018-08-02T07:37:08.392Z,26.00
2018-08-02T07:42:11.967Z,26.00
2018-08-02T07:47:15.599Z,26.10
2018-08-02T07:52:19.168Z,26.40
2018-08-02T07:57:23.496Z,26.50
2018-08-02T08:02:27.064Z,26.70
2018-08-02T08:07:30.651Z,26.80
2018-08-02T08:12:37.160Z,27.10
2018-08-02T08:17:40.782Z,27.10
2018-08-02T08:22:44.829Z,27.30
2018-08-02T08:27:48.361Z,27.60
2018-08-02T08:32:52.501Z,27.90
2018-08-02T08:37:56.110Z,27.80
2018-08-02T08:43:00.206Z,27.70
2018-08-02T08:48:03.817Z,28.00
2018-08-02T08:53:07.678Z,28.10
2018-08-02T09:03:16.714Z,28.20
2018-08-02T09:08:20.883Z,28.00
2018-08-02T09:13:24.690Z,27.80
2018-08-02T09:18:28.298Z,27.80
2018-08-02T09:23:31.912Z,28.00
2018-08-02T09:28:39.942Z,28.30
2018-08-02T09:33:43.492Z,28.80
2018-08-02T09:38:47.031Z,28.70
2018-08-02T09:43:50.620Z,28.90
2018-08-02T09:48:55.338Z,29.50
2018-08-02T09:53:58.887Z,29.90
2018-08-02T09:59:03.594Z,30.50
2018-08-02T10:04:07.284Z,30.70
2018-08-02T10:09:12.489Z,30.70
2018-08-02T10:14:17.947Z,31.20
2018-08-02T10:19:21.836Z,31.40
2018-08-02T10:24:25.421Z,31.70
2018-08-02T10:29:29.010Z,32.00
2018-08-02T10:39:35.822Z,32.50
2018-08-02T10:44:40.166Z,32.40
2018-08-02T10:49:44.689Z,32.60
2018-08-02T10:54:48.350Z,32.80
2018-08-02T10:59:51.950Z,32.80
2018-08-02T11:04:55.502Z,33.00
2018-08-02T11:10:00.000Z,33.10
2018-08-02T11:15:03.762Z,33.50
2018-08-02T11:20:07.312Z,33.80
2018-08-02T11:25:10.870Z,33.60
2018-08-02T11:30:14.395Z,33.80
2018-08-02T11:35:17.914Z,34.10
2018-08-02T11:40:22.408Z,34.30
2018-08-02T11:45:25.960Z,34.40
2018-08-02T11:50:29.514Z,34.50
2018-08-02T11:55:33.663Z,34.70
2018-08-02T12:00:37.215Z,34.50
2018-08-02T12:05:42.656Z,34.60
2018-08-02T12:10:46.487Z,34.60
2018-08-02T12:15:51.246Z,34.60
2018-08-02T12:20:54.907Z,35.00
2018-08-02T12:25:58.511Z,34.30
2018-08-02T12:31:02.953Z,34.30
2018-08-02T12:36:06.495Z,34.80
2018-08-02T12:41:11.996Z,35.00
2018-08-02T12:46:15.574Z,35.20
2018-08-02T12:51:20.959Z,35.50
2018-08-02T12:56:24.542Z,35.50
2018-08-02T13:01:28.919Z,35.00
2018-08-02T13:06:32.527Z,34.70
2018-08-02T13:11:36.808Z,35.00
2018-08-02T13:16:40.360Z,35.00
2018-08-02T13:21:43.915Z,35.20
2018-08-02T13:26:47.478Z,35.80
2018-08-02T13:31:51.108Z,36.40
2018-08-02T13:36:55.466Z,36.80
2018-08-02T13:41:59.080Z,37.20
2018-08-02T13:47:02.658Z,37.70
2018-08-02T13:52:07.307Z,37.60
2018-08-02T13:57:10.866Z,38.00
2018-08-02T14:02:16.627Z,38.40
2018-08-02T14:07:20.210Z,38.10
2018-08-02T14:12:23.791Z,38.20
2018-08-02T14:17:27.498Z,38.70
2018-08-02T14:22:31.465Z,39.00
2018-08-02T14:27:34.863Z,39.20
2018-08-02T14:32:38.392Z,38.80
2018-08-02T14:37:41.935Z,38.90
2018-08-02T14:42:45.515Z,38.40
2018-08-02T14:47:49.467Z,37.60
2018-08-02T14:52:53.464Z,37.40
2018-08-02T14:57:57.375Z,37.00
2018-08-02T15:03:00.950Z,36.80
2018-08-02T15:08:04.676Z,36.70
2018-08-02T15:13:08.324Z,36.60
2018-08-02T15:18:11.920Z,36.80
2018-08-02T15:23:15.480Z,37.40
2018-08-02T15:28:20.343Z,37.80
2018-08-02T15:33:24.558Z,38.00
2018-08-02T15:38:28.555Z,37.90
2018-08-02T15:43:32.127Z,37.20
2018-08-02T15:48:35.672Z,36.90
2018-08-02T15:53:39.213Z,37.10
2018-08-02T15:58:42.752Z,36.90
2018-08-02T16:03:46.560Z,36.30
2018-08-02T16:08:50.268Z,35.80
2018-08-02T16:13:53.802Z,36.10
2018-08-02T16:18:57.322Z,36.20
2018-08-02T16:24:00.889Z,35.80
2018-08-02T16:29:06.360Z,35.60
2018-08-02T16:34:10.179Z,36.20
2018-08-02T16:39:13.735Z,36.30
2018-08-02T16:44:18.806Z,35.90
2018-08-02T16:49:28.668Z,35.90
2018-08-02T16:54:32.222Z,35.50
2018-08-02T16:59:35.758Z,34.90
2018-08-02T17:04:39.588Z,34.80
2018-08-02T17:09:43.214Z,35.00
2018-08-02T17:14:47.543Z,35.20
2018-08-02T17:19:51.050Z,35.30
2018-08-02T17:24:55.169Z,35.40
2018-08-02T17:29:58.947Z,35.40
2018-08-02T17:35:02.483Z,35.50
2018-08-02T17:40:06.135Z,35.60
2018-08-02T17:45:10.276Z,35.70
2018-08-02T17:50:14.037Z,35.60
2018-08-02T17:55:17.588Z,35.40
2018-08-02T18:00:21.129Z,35.20
2018-08-02T18:05:25.127Z,34.90
2018-08-02T18:10:28.678Z,34.90
2018-08-02T18:15:32.295Z,34.70
2018-08-02T18:20:36.030Z,34.60
2018-08-02T18:25:39.844Z,34.40
2018-08-02T18:30:43.560Z,33.80
2018-08-02T18:35:46.980Z,33.20
2018-08-02T18:45:54.184Z,32.60
2018-08-02T18:50:57.735Z,32.00
2018-08-02T18:56:01.291Z,32.00
2018-08-02T19:01:05.099Z,31.80
2018-08-02T19:06:08.743Z,31.60
2018-08-02T19:11:12.320Z,31.50
2018-08-02T19:16:16.007Z,31.40
2018-08-02T19:21:19.565Z,31.20
2018-08-02T19:26:23.098Z,30.70
2018-08-02T19:31:26.739Z,30.40
2018-08-02T19:36:30.296Z,30.40
2018-08-02T19:41:55.146Z,30.30
2018-08-02T19:46:59.275Z,30.30
2018-08-02T19:52:06.259Z,30.20
2018-08-02T19:57:10.185Z,30.20
2018-08-02T20:02:13.908Z,30.00
2018-08-02T20:07:17.439Z,29.90
2018-08-02T20:12:21.088Z,29.90
2018-08-02T20:17:24.852Z,29.90
2018-08-02T20:22:28.398Z,29.90
2018-08-02T20:27:31.991Z,29.90
2018-08-02T20:32:35.512Z,29.90
2018-08-02T20:37:39.085Z,29.80
2018-08-02T20:42:46.342Z,29.80
2018-08-02T20:47:49.951Z,29.70
2018-08-02T20:52:53.572Z,29.60
2018-08-02T20:57:57.392Z,29.50
2018-08-02T21:03:02.648Z,29.50
2018-08-02T21:08:06.209Z,29.40
2018-08-02T21:13:09.874Z,29.30
2018-08-02T21:18:13.379Z,29.20
2018-08-02T21:23:16.944Z,29.10
2018-08-02T21:28:20.479Z,29.00
2018-08-02T21:33:24.266Z,28.80
2018-08-02T21:38:28.479Z,28.70
2018-08-02T21:43:32.320Z,28.50
2018-08-02T21:48:36.581Z,28.50
2018-08-02T21:58:43.339Z,28.50
2018-08-02T22:03:46.895Z,28.40
2018-08-02T22:08:50.748Z,28.30
2018-08-02T22:13:55.378Z,27.90
2018-08-02T22:18:58.951Z,27.80
2018-08-02T22:24:02.498Z,27.90
2018-08-02T22:29:06.725Z,27.90
2018-08-02T22:34:10.257Z,27.90
2018-08-02T22:39:13.798Z,27.70
2018-08-02T22:44:17.458Z,27.70
2018-08-02T22:49:21.010Z,27.70
2018-08-02T22:54:24.604Z,27.80
2018-08-02T22:59:29.129Z,27.70
2018-08-02T23:04:32.726Z,27.80
2018-08-02T23:09:37.006Z,27.80
2018-08-02T23:14:41.028Z,27.70
2018-08-02T23:19:44.603Z,27.60
2018-08-02T23:24:48.350Z,27.40
2018-08-02T23:29:51.890Z,27.20
2018-08-02T23:34:55.464Z,27.10
2018-08-02T23:39:59.161Z,27.00
2018-08-02T23:45:04.807Z,26.90
2018-08-02T23:50:08.489Z,26.80
2018-08-02T23:55:12.396Z,26.70
